Time;durP1;ratioP1;P1;durP2;ratioP2;P2;SDS_P1;SDS_P2;PMS_P1;PMS_P2;Temp;Humidity;BMP_temperature;BMP_pressure;BME280_temperature;BME280_humidity;BME280_pressure;Samples;Min_cycle;Max_cycle;Signal;HPM_P1;HPM_P2
2022/08/04 00:00:40;;;;;;;50.97;48.27;;;;;;;19.38;100.00;101373.94;2009704;71;30945;-74
2022/08/04 00:06:36;;;;;;;49.63;46.93;;;;;;;19.32;100.00;101370.45;2011112;71;31047;-73
2022/08/04 00:09:10;;;;;;;48.57;45.97;;;;;;;19.32;100.00;101378.06;1982496;72;24586;-73
2022/08/04 00:11:43;;;;;;;49.90;47.10;;;;;;;19.33;100.00;101373.52;1977031;72;24616;-73
2022/08/04 00:17:33;;;;;;;48.43;45.73;;;;;;;19.52;100.00;101370.38;2005997;71;33423;-74
2022/08/04 00:23:19;;;;;;;50.57;47.77;;;;;;;19.62;100.00;101372.86;2016815;71;31457;-74
2022/08/04 00:29:05;;;;;;;50.97;48.30;;;;;;;19.71;100.00;101370.86;2009342;70;30935;-74
2022/08/04 00:34:51;;;;;;;46.50;43.83;;;;;;;19.83;100.00;101364.53;1991653;71;30883;-73
2022/08/04 00:40:41;;;;;;;42.73;40.27;;;;;;;19.86;100.00;101366.67;2015030;71;30957;-73
2022/08/04 00:46:44;;;;;;;41.20;38.70;;;;;;;19.86;100.00;101366.09;1997033;71;30927;-73
2022/08/04 00:53:03;;;;;;;38.83;36.73;;;;;;;19.93;100.00;101367.84;2008075;71;31079;-73
2022/08/04 00:59:05;;;;;;;37.77;35.70;;;;;;;20.08;100.00;101358.56;2015138;71;31157;-72
2022/08/04 01:05:04;;;;;;;39.20;36.90;;;;;;;20.01;100.00;101361.92;1994919;71;31001;-73
2022/08/04 01:08:13;;;;;;;35.50;33.20;;;;;;;19.89;100.00;101364.03;1961694;72;24155;-73
2022/08/04 01:10:49;;;;;;;36.20;33.80;;;;;;;19.96;100.00;101357.87;1976421;72;24617;-74
2022/08/04 01:16:47;;;;;;;33.30;31.40;;;;;;;20.05;100.00;101355.85;2013064;71;31064;-73
2022/08/04 01:23:35;;;;;;;32.73;30.80;;;;;;;20.04;100.00;101361.24;2016832;71;31180;-73
2022/08/04 01:29:53;;;;;;;31.10;29.17;;;;;;;20.04;100.00;101351.95;2011755;71;30880;-73
2022/08/04 01:35:42;;;;;;;33.23;31.33;;;;;;;19.97;100.00;101352.48;2013139;71;30930;-73
2022/08/04 01:38:16;;;;;;;32.73;30.83;;;;;;;19.93;100.00;101356.56;1986474;72;24261;-73
2022/08/04 01:44:04;;;;;;;35.10;33.00;;;;;;;19.87;100.00;101353.66;2016578;71;30904;-74
2022/08/04 01:49:51;;;;;;;35.17;33.10;;;;;;;19.70;100.00;101359.91;2004578;71;31351;-74
2022/08/04 01:55:37;;;;;;;35.07;32.90;;;;;;;19.68;100.00;101359.44;1995397;71;31386;-74
2022/08/04 02:01:21;;;;;;;33.87;31.97;;;;;;;19.69;100.00;101361.06;2006387;71;33210;-74
2022/08/04 02:07:29;;;;;;;33.80;31.90;;;;;;;19.74;100.00;101364.55;1995491;71;30920;-74
2022/08/04 02:10:06;;;;;;;33.47;31.30;;;;;;;19.71;100.00;101365.80;1967442;72;24230;-74
2022/08/04 02:12:44;;;;;;;31.60;29.90;;;;;;;19.64;100.00;101363.48;1972599;72;24601;-74
2022/08/04 02:15:17;;;;;;;31.33;29.43;;;;;;;19.63;100.00;101358.19;1962120;72;24167;-74
2022/08/04 02:17:52;;;;;;;31.07;29.20;;;;;;;19.71;100.00;101362.41;1980506;72;24260;-74
2022/08/04 02:20:25;;;;;;;32.27;30.27;;;;;;;19.64;100.00;101359.86;1984487;72;24238;-74
2022/08/04 02:22:59;;;;;;;32.07;30.33;;;;;;;19.59;100.00;101358.62;1970113;72;24139;-74
2022/08/04 02:28:49;;;;;;;32.80;30.83;;;;;;;19.56;100.00;101353.05;2015162;71;30934;-74
2022/08/04 02:31:25;;;;;;;32.70;30.70;;;;;;;19.64;100.00;101356.43;1984634;72;24152;-74
2022/08/04 02:33:59;;;;;;;33.13;31.13;;;;;;;19.61;100.00;101352.88;1984413;72;24173;-73
2022/08/04 02:39:47;;;;;;;34.20;32.10;;;;;;;19.54;100.00;101351.99;2002178;71;30881;-74
2022/08/04 02:45:34;;;;;;;34.77;32.77;;;;;;;19.55;100.00;101347.19;1994968;71;31468;-74
2022/08/04 02:51:25;;;;;;;37.10;34.77;;;;;;;19.54;100.00;101359.03;1994935;71;30929;-73
2022/08/04 02:57:12;;;;;;;37.03;34.80;;;;;;;19.45;100.00;101351.75;2000363;71;30857;-74
2022/08/04 03:03:10;;;;;;;37.10;34.83;;;;;;;19.53;100.00;101350.33;1977760;72;30956;-73
2022/08/04 03:09:17;;;;;;;38.77;36.37;;;;;;;19.39;100.00;101358.66;2000389;71;30920;-74
2022/08/04 03:12:17;;;;;;;40.40;38.20;;;;;;;19.33;100.00;101355.78;1976824;72;26762;-73
2022/08/04 03:19:00;;;;;;;42.83;40.37;;;;;;;19.09;100.00;101355.69;2006415;71;30842;-73
2022/08/04 03:22:04;;;;;;;43.60;40.93;;;;;;;18.89;100.00;101358.31;1970084;72;24139;-77
2022/08/04 03:25:25;;;;;;;42.40;39.90;;;;;;;18.82;100.00;101356.00;1900477;72;24213;-77
2022/08/04 03:28:37;;;;;;;43.70;41.10;;;;;;;18.83;100.00;101358.21;1890665;75;26291;-77
2022/08/04 03:34:52;;;;;;;44.47;41.83;;;;;;;18.63;100.00;101353.47;1999083;71;30972;-77
2022/08/04 03:41:20;;;;;;;47.20;44.50;;;;;;;18.56;100.00;101356.52;2004107;71;31006;-77
2022/08/04 03:44:09;;;;;;;46.87;44.07;;;;;;;18.44;100.00;101357.69;1963113;72;24167;-77
2022/08/04 03:47:32;;;;;;;47.40;44.80;;;;;;;18.52;100.00;101357.75;1984254;72;24158;-77
2022/08/04 03:54:38;;;;;;;50.23;47.33;;;;;;;18.39;100.00;101358.66;2011758;71;30873;-77
2022/08/04 03:58:00;;;;;;;48.20;45.30;;;;;;;18.47;100.00;101364.06;1917020;72;24166;-77
2022/08/04 04:08:20;;;;;;;51.77;48.57;;;;;;;18.13;100.00;101368.97;1991623;71;30924;-77
2022/08/04 04:14:58;;;;;;;56.33;52.93;;;;;;;18.18;100.00;101364.02;2014822;71;30922;-79
2022/08/04 04:21:12;;;;;;;56.90;53.60;;;;;;;18.02;100.00;101362.78;2004481;71;32851;-78
2022/08/04 04:27:18;;;;;;;56.93;53.63;;;;;;;17.90;100.00;101365.37;1998660;71;30898;-79
2022/08/04 04:30:07;;;;;;;60.20;56.67;;;;;;;17.93;100.00;101367.53;1976243;72;24204;-78
2022/08/04 04:33:06;;;;;;;58.73;55.47;;;;;;;17.92;100.00;101379.94;1988324;72;24167;-78
2022/08/04 04:39:06;;;;;;;65.03;61.37;;;;;;;17.65;100.00;101371.09;2013271;71;31067;-79
2022/08/04 04:41:50;;;;;;;66.10;62.13;;;;;;;17.52;100.00;101378.97;1971601;72;24166;-78
2022/08/04 04:44:30;;;;;;;65.87;61.87;;;;;;;17.79;100.00;101380.02;1985868;72;24170;-79
2022/08/04 04:47:06;;;;;;;65.33;61.30;;;;;;;17.86;100.00;101382.63;1975304;72;24679;-79
2022/08/04 04:49:40;;;;;;;63.23;59.33;;;;;;;17.84;100.00;101385.52;1962754;72;24602;-78
2022/08/04 04:52:14;;;;;;;65.47;61.33;;;;;;;17.68;100.00;101390.67;1978254;72;24163;-78
2022/08/04 04:58:02;;;;;;;66.27;62.37;;;;;;;17.43;100.00;101399.14;2000867;71;30853;-78
2022/08/04 05:04:13;;;;;;;63.53;59.80;;;;;;;17.67;100.00;101391.25;2011938;71;32896;-79
2022/08/04 05:06:53;;;;;;;63.23;59.37;;;;;;;17.43;100.00;101406.16;1977266;72;24154;-78
2022/08/04 05:09:30;;;;;;;64.13;60.43;;;;;;;17.52;100.00;101403.42;1980937;72;24678;-78
2022/08/04 05:15:36;;;;;;;62.83;59.23;;;;;;;17.46;100.00;101405.52;1997393;71;30816;-76
2022/08/04 05:21:28;;;;;;;63.10;59.27;;;;;;;17.73;100.00;101413.86;2003118;71;30953;-77
2022/08/04 05:24:01;;;;;;;61.70;57.90;;;;;;;17.76;100.00;101423.63;1981119;72;24146;-77
2022/08/04 05:29:52;;;;;;;62.90;59.07;;;;;;;17.58;100.00;101428.88;2008110;71;30978;-77
2022/08/04 05:35:41;;;;;;;63.60;59.77;;;;;;;17.74;100.00;101425.37;2018728;71;30900;-77
2022/08/04 05:41:30;;;;;;;61.00;57.60;;;;;;;17.98;100.00;101420.80;2002969;71;30932;-77
2022/08/04 05:47:17;;;;;;;63.63;59.40;;;;;;;17.97;100.00;101422.55;2008472;71;31295;-77
2022/08/04 05:53:03;;;;;;;63.63;59.97;;;;;;;17.90;100.00;101422.16;2016914;71;30882;-77
2022/08/04 05:58:49;;;;;;;61.17;57.33;;;;;;;18.09;100.00;101427.84;2018580;71;30985;-77
2022/08/04 06:04:37;;;;;;;62.33;58.53;;;;;;;18.10;100.00;101429.47;2018459;71;30936;-77
2022/08/04 06:10:23;;;;;;;62.73;58.83;;;;;;;18.11;100.00;101433.12;2015198;71;30922;-77
2022/08/04 06:16:11;;;;;;;59.37;55.43;;;;;;;18.22;100.00;101433.13;2000729;71;30947;-77
2022/08/04 06:21:58;;;;;;;60.93;57.00;;;;;;;18.13;100.00;101436.45;2015013;71;30899;-77
2022/08/04 06:27:44;;;;;;;59.73;56.03;;;;;;;18.25;100.00;101432.47;2011164;71;31059;-77
2022/08/04 06:33:33;;;;;;;60.70;56.97;;;;;;;18.32;100.00;101437.61;2013772;71;30915;-78
2022/08/04 06:39:20;;;;;;;61.00;57.33;;;;;;;18.34;100.00;101436.73;2016654;71;30922;-77
2022/08/04 06:45:10;;;;;;;59.63;56.13;;;;;;;18.36;100.00;101448.47;2004451;71;30868;-77
2022/08/04 06:50:56;;;;;;;58.70;55.40;;;;;;;18.48;100.00;101447.31;2016792;71;33010;-77
2022/08/04 06:56:43;;;;;;;58.10;54.70;;;;;;;18.52;100.00;101461.85;2008139;71;30901;-77
2022/08/04 07:02:30;;;;;;;56.07;52.87;;;;;;;18.51;100.00;101470.58;2012018;71;30946;-78
2022/08/04 07:08:14;;;;;;;55.10;51.60;;;;;;;18.52;100.00;101468.02;2004219;71;31043;-78
2022/08/04 07:14:01;;;;;;;55.43;51.93;;;;;;;18.64;100.00;101478.13;1991744;71;33390;-78
2022/08/04 07:19:46;;;;;;;54.00;50.70;;;;;;;18.55;100.00;101475.27;2018764;71;31505;-77
2022/08/04 07:25:32;;;;;;;54.13;50.67;;;;;;;18.64;100.00;101477.55;2015136;71;30937;-76
2022/08/04 07:31:22;;;;;;;47.73;44.63;;;;;;;19.01;100.00;101476.75;2005854;71;31081;-79
2022/08/04 07:37:06;;;;;;;45.97;42.97;;;;;;;20.04;100.00;101475.46;2004337;71;31468;-77
2022/08/04 07:42:51;;;;;;;43.67;41.03;;;;;;;20.09;100.00;101471.06;2013307;71;31056;-76
2022/08/04 07:48:37;;;;;;;43.57;40.83;;;;;;;19.73;100.00;101471.99;2011222;71;30887;-77
2022/08/04 07:54:23;;;;;;;39.43;36.83;;;;;;;21.15;100.00;101461.58;2015285;71;30908;-77
2022/08/04 08:00:10;;;;;;;36.50;34.10;;;;;;;21.51;100.00;101457.34;2015065;71;30977;-77
2022/08/04 08:05:55;;;;;;;30.33;28.30;;;;;;;21.66;100.00;101457.55;2005735;71;30918;-77
2022/08/04 08:11:40;;;;;;;28.83;27.20;;;;;;;21.70;100.00;101463.33;2009473;71;30936;-77
2022/08/04 08:17:25;;;;;;;25.70;24.30;;;;;;;21.87;100.00;101458.10;2015326;71;30941;-76
2022/08/04 08:23:09;;;;;;;26.73;25.00;;;;;;;22.16;100.00;101464.50;2002737;71;33408;-77
2022/08/04 08:28:54;;;;;;;25.30;23.85;;;;;;;22.46;100.00;101459.51;2015016;71;30900;-78
2022/08/04 08:34:39;;;;;;;23.13;21.83;;;;;;;22.60;100.00;101458.59;2004021;71;31597;-77
2022/08/04 08:40:32;;;;;;;21.90;20.60;;;;;;;22.67;100.00;101450.95;2018700;71;30991;-76
2022/08/04 08:46:40;;;;;;;20.43;19.17;;;;;;;22.79;100.00;101450.16;2004037;70;31029;-76
2022/08/04 08:49:39;;;;;;;20.17;19.10;;;;;;;22.78;100.00;101452.75;1983821;72;24585;-75
2022/08/04 08:55:48;;;;;;;20.43;18.80;;;;;;;23.05;100.00;101457.13;2000770;71;30928;-73
2022/08/04 09:06:02;;;;;;;17.87;16.77;;;;;;;23.08;100.00;101459.83;2005835;71;30943;-74
2022/08/04 09:12:20;;;;;;;16.97;15.98;;;;;;;23.17;100.00;101470.46;2015020;71;30971;-76
2022/08/04 09:18:11;;;;;;;16.07;15.10;;;;;;;23.12;100.00;101460.77;2011552;71;31435;-75
2022/08/04 09:20:46;;;;;;;15.78;14.83;;;;;;;23.09;100.00;101463.73;1984923;72;24570;-75
2022/08/04 09:23:22;;;;;;;16.52;15.43;;;;;;;23.14;100.00;101465.51;1985023;72;24608;-75
2022/08/04 09:25:56;;;;;;;15.35;14.55;;;;;;;23.15;100.00;101471.39;1986251;72;24166;-75
2022/08/04 09:31:46;;;;;;;16.05;15.18;;;;;;;23.13;100.00;101471.77;2018971;71;31008;-75
2022/08/04 09:34:20;;;;;;;15.40;14.43;;;;;;;23.15;100.00;101477.06;1977459;72;24155;-75
2022/08/04 09:36:54;;;;;;;14.45;13.50;;;;;;;23.14;100.00;101478.27;1965439;72;24155;-75
2022/08/04 09:39:28;;;;;;;14.55;13.85;;;;;;;23.15;100.00;101475.05;1973927;72;24148;-75
2022/08/04 09:42:06;;;;;;;15.08;14.25;;;;;;;23.24;100.00;101476.94;1967740;72;24645;-75
2022/08/04 09:44:42;;;;;;;14.85;13.85;;;;;;;23.23;100.00;101479.56;1976834;72;24266;-76
2022/08/04 09:47:15;;;;;;;14.93;14.03;;;;;;;23.18;100.00;101481.20;1975185;72;24713;-76
2022/08/04 09:49:50;;;;;;;14.30;13.62;;;;;;;23.24;100.00;101482.02;1980446;72;24247;-76
2022/08/04 09:52:26;;;;;;;14.63;13.65;;;;;;;23.24;100.00;101480.59;1971564;72;24170;-76
2022/08/04 09:55:01;;;;;;;14.13;13.20;;;;;;;23.26;100.00;101483.09;1966541;72;24148;-76
2022/08/04 09:57:42;;;;;;;15.70;14.75;;;;;;;23.25;100.00;101485.09;1983814;72;24170;-75
2022/08/04 10:03:32;;;;;;;14.15;13.43;;;;;;;23.35;100.00;101488.05;1991775;71;30840;-77
2022/08/04 10:09:35;;;;;;;15.63;14.83;;;;;;;23.36;100.00;101492.54;2001010;71;31495;-74
2022/08/04 10:15:26;;;;;;;12.58;11.88;;;;;;;23.40;100.00;101492.89;2018508;71;30974;-75
2022/08/04 10:18:06;;;;;;;11.83;11.22;;;;;;;23.39;100.00;101490.40;1981158;72;24131;-76
2022/08/04 10:27:51;;;;;;;12.50;11.80;;;;;;;23.35;100.00;101501.63;2011492;71;31372;-76
2022/08/04 10:33:39;;;;;;;11.90;11.30;;;;;;;23.45;100.00;101496.91;1997470;71;30848;-77
2022/08/04 10:39:30;;;;;;;11.78;11.08;;;;;;;23.48;100.00;101504.72;2015310;71;31404;-76
2022/08/04 10:42:06;;;;;;;11.78;11.12;;;;;;;23.45;100.00;101508.84;1985717;72;24162;-75
2022/08/04 10:44:41;;;;;;;12.15;11.45;;;;;;;23.48;100.00;101508.98;1982074;72;24597;-75
2022/08/04 10:47:15;;;;;;;12.43;11.60;;;;;;;23.55;100.00;101506.95;1974447;72;24605;-75
2022/08/04 10:53:05;;;;;;;11.60;11.10;;;;;;;23.63;100.00;101503.73;2004299;71;31010;-75
2022/08/04 10:58:55;;;;;;;11.65;11.05;;;;;;;23.69;100.00;101490.97;2013146;71;30973;-75
2022/08/04 11:04:46;;;;;;;11.80;10.95;;;;;;;23.71;100.00;101506.42;2004142;71;31524;-76
2022/08/04 11:10:35;;;;;;;11.90;11.08;;;;;;;23.74;100.00;101499.23;1998422;71;30933;-74
2022/08/04 11:16:25;;;;;;;10.63;10.05;;;;;;;23.67;100.00;101506.08;2000910;71;30831;-76
2022/08/04 11:22:16;;;;;;;11.68;10.95;;;;;;;23.68;100.00;101513.41;2000258;71;31355;-76
2022/08/04 11:24:51;;;;;;;11.33;10.72;;;;;;;23.72;100.00;101516.59;1981593;72;24607;-75
2022/08/04 11:27:25;;;;;;;11.08;10.58;;;;;;;23.53;100.00;101516.42;1984064;72;24201;-75
2022/08/04 11:30:02;;;;;;;11.68;11.00;;;;;;;23.67;100.00;101514.59;1975245;72;24597;-75
2022/08/04 11:32:37;;;;;;;11.10;10.60;;;;;;;23.68;100.00;101517.08;1982970;72;24219;-75
2022/08/04 11:35:11;;;;;;;11.05;10.45;;;;;;;23.83;100.00;101517.73;1967161;72;24736;-75
2022/08/04 11:37:48;;;;;;;11.20;10.70;;;;;;;23.78;100.00;101522.86;1976504;72;24654;-74
2022/08/04 11:40:24;;;;;;;11.35;10.75;;;;;;;23.71;100.00;101510.69;1967842;72;24241;-74
2022/08/04 11:42:57;;;;;;;11.60;11.00;;;;;;;23.81;100.00;101508.78;1962938;72;24152;-74
2022/08/04 11:45:30;;;;;;;10.58;10.05;;;;;;;23.94;100.00;101507.55;1972548;72;24150;-73
2022/08/04 11:51:18;;;;;;;11.30;10.68;;;;;;;24.02;100.00;101507.16;2009741;71;30945;-75
2022/08/04 11:57:10;;;;;;;10.45;9.95;;;;;;;23.88;100.00;101516.66;1994809;71;30883;-75
2022/08/04 12:03:14;;;;;;;10.30;9.80;;;;;;;23.89;100.00;101521.16;1977829;72;31398;-75
2022/08/04 12:09:25;;;;;;;10.50;9.98;;;;;;;23.92;100.00;101531.20;2004265;71;31485;-74
2022/08/04 12:15:21;;;;;;;10.70;10.08;;;;;;;23.83;100.00;101521.20;2005657;71;30867;-75
2022/08/04 12:17:56;;;;;;;10.35;9.83;;;;;;;23.79;100.00;101530.99;1982962;72;24272;-75
2022/08/04 12:23:45;;;;;;;10.35;9.75;;;;;;;23.86;100.00;101527.56;2004398;71;30821;-72
2022/08/04 12:29:36;;;;;;;14.65;14.05;;;;;;;23.88;100.00;101521.75;2013247;71;31000;-74
2022/08/04 12:35:30;;;;;;;10.15;9.65;;;;;;;24.02;100.00;101514.27;2015000;71;30922;-75
2022/08/04 12:41:21;;;;;;;9.98;9.50;;;;;;;24.29;100.00;101515.49;2010170;71;31462;-75
2022/08/04 12:47:13;;;;;;;10.25;9.85;;;;;;;24.15;100.00;101517.32;2011286;71;30869;-74
2022/08/04 12:53:01;;;;;;;10.90;10.30;;;;;;;24.03;100.00;101525.27;2016682;71;31049;-74
2022/08/04 12:58:50;;;;;;;10.13;9.58;;;;;;;24.01;100.00;101522.54;2011336;71;30940;-76
2022/08/04 13:04:41;;;;;;;10.70;10.20;;;;;;;24.04;100.00;101525.51;2010443;71;31012;-74
2022/08/04 13:10:35;;;;;;;10.40;9.90;;;;;;;24.33;100.00;101520.09;2015469;71;30857;-75
2022/08/04 13:16:22;;;;;;;10.85;10.25;;;;;;;24.48;100.00;101512.18;2013244;70;30875;-75
2022/08/04 13:22:09;;;;;;;11.03;10.38;;;;;;;24.45;100.00;101522.03;2003441;71;30950;-74
2022/08/04 13:27:55;;;;;;;10.68;10.18;;;;;;;24.49;100.00;101520.94;1991664;71;31774;-74
2022/08/04 13:33:44;;;;;;;10.88;10.08;;;;;;;24.42;100.00;101520.75;2000889;71;32277;-73
2022/08/04 13:39:32;;;;;;;10.72;10.23;;;;;;;24.40;100.00;101516.61;2006467;71;30878;-73
2022/08/04 13:45:22;;;;;;;10.68;9.98;;;;;;;24.45;100.00;101515.76;2009942;71;30811;-71
2022/08/04 13:51:12;;;;;;;10.65;10.13;;;;;;;24.53;100.00;101504.58;2009893;71;31299;-73
2022/08/04 13:57:00;;;;;;;11.80;10.63;;;;;;;24.29;100.00;101515.49;2016827;71;30919;-72
2022/08/04 14:02:49;;;;;;;10.80;10.25;;;;;;;24.35;100.00;101516.27;1964858;71;31107;-73
2022/08/04 14:08:39;;;;;;;10.95;10.25;;;;;;;24.26;100.00;101512.77;2016540;71;31506;-72
2022/08/04 14:14:27;;;;;;;10.50;10.00;;;;;;;24.34;100.00;101508.97;2008334;71;30869;-72
2022/08/04 14:20:17;;;;;;;10.45;9.93;;;;;;;24.27;100.00;101513.59;2016705;71;30869;-73
2022/08/04 14:26:03;;;;;;;10.18;9.78;;;;;;;24.27;100.00;101511.58;1995553;71;31428;-70
2022/08/04 14:31:51;;;;;;;10.25;9.75;;;;;;;24.42;100.00;101512.83;2010062;71;31381;-72
2022/08/04 14:37:58;;;;;;;9.95;9.55;;;;;;;24.44;100.00;101516.11;2000452;71;31060;-70
2022/08/04 14:43:50;;;;;;;10.43;9.78;;;;;;;24.43;100.00;101512.44;1998625;71;31724;-72
2022/08/04 14:49:39;;;;;;;9.75;9.35;;;;;;;24.62;100.00;101507.49;1997142;71;31832;-73
2022/08/04 14:55:29;;;;;;;10.05;9.55;;;;;;;24.65;100.00;101498.82;1993167;71;30969;-73
2022/08/04 15:01:18;;;;;;;9.83;9.43;;;;;;;24.42;100.00;101516.49;2011693;71;31069;-73
2022/08/04 15:07:08;;;;;;;9.60;9.20;;;;;;;24.38;100.00;101512.73;2013434;71;32557;-72
2022/08/04 15:12:57;;;;;;;10.03;9.60;;;;;;;24.39;100.00;101515.78;2011650;71;30865;-72
2022/08/04 15:18:47;;;;;;;10.55;10.10;;;;;;;24.51;100.00;101513.48;2003968;71;32844;-72
2022/08/04 15:24:38;;;;;;;10.40;10.00;;;;;;;24.65;100.00;101515.28;2015405;71;31093;-72
2022/08/04 15:30:30;;;;;;;11.18;10.68;;;;;;;24.60;100.00;101514.74;2015640;71;32506;-72
2022/08/04 15:36:24;;;;;;;11.15;10.55;;;;;;;24.72;100.00;101525.44;2014871;71;30878;-73
2022/08/04 15:39:10;;;;;;;10.80;10.25;;;;;;;24.62;100.00;101531.64;1978112;72;24592;-73
2022/08/04 15:41:47;;;;;;;11.15;10.55;;;;;;;24.63;100.00;101533.89;1983841;72;24175;-74
2022/08/04 15:48:13;;;;;;;10.08;9.58;;;;;;;24.52;100.00;101528.52;1997284;71;31403;-74
2022/08/04 15:54:29;;;;;;;9.63;9.23;;;;;;;24.40;100.00;101527.38;2009771;71;31367;-74
2022/08/04 16:00:16;;;;;;;10.20;9.60;;;;;;;24.58;100.00;101534.15;2007935;71;32336;-73
2022/08/04 16:06:03;;;;;;;9.45;9.15;;;;;;;24.39;100.00;101539.92;2002430;71;30986;-74
2022/08/04 16:11:50;;;;;;;9.48;8.98;;;;;;;24.52;100.00;101539.26;2011447;71;31841;-73
2022/08/04 16:17:48;;;;;;;9.55;9.15;;;;;;;24.55;100.00;101539.98;2018667;71;30930;-74
2022/08/04 16:23:59;;;;;;;9.93;9.53;;;;;;;24.42;100.00;101543.48;2000541;71;31832;-74
2022/08/04 16:30:08;;;;;;;10.08;9.63;;;;;;;24.42;100.00;101546.31;2016760;71;30883;-74
2022/08/04 16:36:02;;;;;;;10.10;9.70;;;;;;;24.49;100.00;101549.34;2012111;71;31332;-74
2022/08/04 16:38:54;;;;;;;10.00;9.50;;;;;;;24.41;100.00;101555.19;1976228;72;24219;-74
2022/08/04 16:45:01;;;;;;;9.98;9.50;;;;;;;24.59;100.00;101557.11;2018647;71;30861;-74
2022/08/04 16:51:24;;;;;;;9.70;9.18;;;;;;;24.45;100.00;101551.85;2000767;71;31398;-72
2022/08/04 16:57:11;;;;;;;9.70;9.30;;;;;;;24.28;100.00;101560.69;2019091;71;33453;-73
2022/08/04 17:03:03;;;;;;;9.80;9.28;;;;;;;24.40;100.00;101557.20;1973044;72;31404;-73
2022/08/04 17:08:51;;;;;;;10.20;9.70;;;;;;;24.46;100.00;101562.86;1995554;71;31278;-73
2022/08/04 17:14:40;;;;;;;9.30;9.00;;;;;;;24.51;100.00;101565.21;2011319;71;30864;-72
2022/08/04 17:20:28;;;;;;;9.70;9.30;;;;;;;24.44;100.00;101564.39;1999252;71;31928;-73
2022/08/04 17:26:25;;;;;;;9.50;9.10;;;;;;;24.11;100.00;101568.87;1995359;71;31310;-73
2022/08/04 17:32:20;;;;;;;10.40;9.88;;;;;;;24.20;100.00;101557.41;2011677;70;30865;-72
2022/08/04 17:38:07;;;;;;;9.40;8.90;;;;;;;24.11;100.00;101570.30;1998934;71;30891;-73
2022/08/04 17:44:06;;;;;;;9.50;9.03;;;;;;;24.32;100.00;101569.55;2008167;71;31773;-72
2022/08/04 17:49:53;;;;;;;10.38;9.78;;;;;;;23.97;100.00;101576.95;2000927;71;31407;-73
2022/08/04 17:55:43;;;;;;;9.98;9.48;;;;;;;24.18;100.00;101576.20;2008260;71;30889;-74
2022/08/04 18:01:47;;;;;;;9.45;9.00;;;;;;;24.30;100.00;101574.73;2006426;71;31404;-72
2022/08/04 18:07:44;;;;;;;9.90;9.30;;;;;;;24.15;100.00;101571.81;2008179;71;30858;-73
2022/08/04 18:13:30;;;;;;;9.35;8.85;;;;;;;23.74;100.00;101577.25;2015420;71;31350;-73
2022/08/04 18:19:20;;;;;;;9.50;9.10;;;;;;;23.85;100.00;101582.66;2015406;71;30918;-73
2022/08/04 18:28:13;;;;;;;9.95;9.38;;;;;;;23.66;100.00;101582.47;2053217;69;30575;-73
2022/08/04 18:30:44;;;;;;;9.93;9.53;;;;;;;23.77;100.00;101581.61;1934876;73;24165;-73
2022/08/04 18:33:15;;;;;;;10.43;9.95;;;;;;;23.94;100.00;101579.09;1938896;73;24168;-73
2022/08/04 18:35:46;;;;;;;10.45;9.90;;;;;;;24.00;100.00;101589.03;1935221;73;24208;-74
2022/08/04 18:38:17;;;;;;;10.15;9.55;;;;;;;24.10;100.00;101594.78;1937834;74;24113;-72
2022/08/04 18:40:48;;;;;;;9.83;9.43;;;;;;;23.95;100.00;101592.11;1964151;72;24271;-73
2022/08/04 18:43:19;;;;;;;10.28;9.65;;;;;;;23.83;100.00;101591.52;1937811;74;24116;-74
2022/08/04 18:45:50;;;;;;;10.60;10.20;;;;;;;23.63;100.00;101593.08;1934378;73;24238;-74
2022/08/04 18:48:21;;;;;;;10.50;10.00;;;;;;;23.57;100.00;101593.34;2017951;71;24588;-74
2022/08/04 18:50:54;;;;;;;9.88;9.48;;;;;;;23.65;100.00;101600.66;1937730;73;24155;-73
2022/08/04 18:53:25;;;;;;;10.20;9.70;;;;;;;23.51;100.00;101600.42;1937874;73;24230;-73
2022/08/04 18:55:56;;;;;;;9.80;9.40;;;;;;;23.71;100.00;101602.05;1939331;73;24164;-73
2022/08/04 18:58:27;;;;;;;10.30;9.70;;;;;;;23.80;100.00;101602.17;1941712;73;26251;-73
2022/08/04 19:00:58;;;;;;;10.48;10.03;;;;;;;23.79;100.00;101609.02;1939140;73;24199;-73
2022/08/04 19:03:29;;;;;;;10.55;9.90;;;;;;;23.66;100.00;101610.83;1933599;74;24615;-73
2022/08/04 19:09:14;;;;;;;9.35;8.93;;;;;;;23.53;100.00;101613.64;1994826;71;31021;-74
2022/08/04 19:15:02;;;;;;;8.78;8.48;;;;;;;23.36;100.00;101622.97;2005712;71;30867;-73
2022/08/04 19:20:48;;;;;;;8.90;8.50;;;;;;;23.20;100.00;101628.48;1994790;71;30798;-72
2022/08/04 19:26:35;;;;;;;9.30;8.88;;;;;;;23.38;100.00;101626.27;2004505;71;30891;-73
2022/08/04 19:32:26;;;;;;;9.18;8.78;;;;;;;23.54;100.00;101640.00;2004011;71;30895;-72
2022/08/04 19:38:19;;;;;;;9.63;9.20;;;;;;;23.47;100.00;101643.44;2016934;71;30865;-72
2022/08/04 19:44:05;;;;;;;9.80;9.40;;;;;;;23.32;100.00;101654.01;2000728;71;31358;-73
2022/08/04 19:49:51;;;;;;;9.50;9.10;;;;;;;23.07;100.00;101655.14;2014921;71;31420;-72
2022/08/04 19:55:37;;;;;;;9.78;9.28;;;;;;;22.85;100.00;101656.98;2002306;71;31455;-72
2022/08/04 20:01:23;;;;;;;9.50;9.10;;;;;;;22.80;100.00;101666.53;2014905;71;31376;-72
2022/08/04 20:07:09;;;;;;;9.18;8.78;;;;;;;22.69;100.00;101671.78;2016888;71;32804;-72
2022/08/04 20:12:56;;;;;;;9.68;9.18;;;;;;;21.44;100.00;101688.26;2019007;71;31367;-75
2022/08/04 20:18:43;;;;;;;9.45;9.05;;;;;;;21.13;100.00;101686.30;2008325;71;30891;-75
2022/08/04 20:24:28;;;;;;;10.45;9.95;;;;;;;20.93;100.00;101688.37;2009556;71;30867;-74
2022/08/04 20:30:16;;;;;;;10.85;10.28;;;;;;;20.82;100.00;101693.55;2002317;71;30883;-74
2022/08/04 20:36:02;;;;;;;10.10;9.60;;;;;;;20.82;100.00;101703.44;2015089;71;30964;-76
2022/08/04 20:41:48;;;;;;;9.98;9.50;;;;;;;20.60;100.00;101710.09;2005805;71;30922;-75
2022/08/04 20:47:36;;;;;;;10.57;9.90;;;;;;;20.42;100.00;101711.23;2004607;71;30966;-74
2022/08/04 20:53:24;;;;;;;10.47;9.87;;;;;;;20.41;100.00;101712.38;2011868;71;30800;-75
2022/08/04 20:59:10;;;;;;;10.10;9.70;;;;;;;20.10;100.00;101721.53;1998790;71;30893;-76
2022/08/04 21:04:57;;;;;;;9.40;9.00;;;;;;;19.98;100.00;101721.57;2010278;71;30852;-75
2022/08/04 21:10:43;;;;;;;10.33;9.83;;;;;;;19.88;100.00;101725.29;2016768;71;30885;-75
2022/08/04 21:16:28;;;;;;;10.97;10.47;;;;;;;19.69;100.00;101728.94;2011266;71;31464;-74
2022/08/04 21:22:15;;;;;;;10.87;10.27;;;;;;;19.41;100.00;101748.01;2006069;71;31401;-79
2022/08/04 21:28:03;;;;;;;10.10;9.70;;;;;;;19.52;100.00;101751.66;2017159;71;30939;-78
2022/08/04 21:33:48;;;;;;;9.30;8.90;;;;;;;19.53;100.00;101751.09;2006187;71;30911;-75
2022/08/04 21:39:33;;;;;;;9.63;9.10;;;;;;;19.58;100.00;101749.54;2002584;71;30797;-74
2022/08/04 21:45:19;;;;;;;9.30;8.80;;;;;;;19.63;100.00;101756.45;2011945;71;31327;-73
2022/08/04 21:51:16;;;;;;;9.13;8.63;;;;;;;19.44;100.00;101755.27;2016817;71;31346;-72
2022/08/04 21:57:02;;;;;;;8.80;8.30;;;;;;;19.47;100.00;101757.43;2003910;71;32918;-75
2022/08/04 22:02:47;;;;;;;9.23;8.83;;;;;;;19.29;100.00;101765.52;1956417;72;31449;-74
2022/08/04 22:08:32;;;;;;;9.53;8.90;;;;;;;19.34;100.00;101775.83;2015164;71;33269;-74
2022/08/04 22:14:17;;;;;;;9.73;8.97;;;;;;;19.33;100.00;101772.74;2010137;71;32753;-73
2022/08/04 22:20:01;;;;;;;9.57;8.97;;;;;;;19.44;100.00;101769.36;2008335;71;32828;-73
2022/08/04 22:25:48;;;;;;;9.53;9.00;;;;;;;19.46;100.00;101769.88;1995347;71;30979;-72
2022/08/04 22:31:34;;;;;;;9.37;8.67;;;;;;;19.46;100.00;101774.11;2000965;71;32889;-72
2022/08/04 22:37:20;;;;;;;9.40;8.90;;;;;;;19.20;100.00;101777.30;2001437;71;30925;-73
2022/08/04 22:43:05;;;;;;;9.33;8.93;;;;;;;19.32;100.00;101779.53;2014889;71;30862;-73
2022/08/04 22:48:50;;;;;;;10.03;9.43;;;;;;;19.37;100.00;101780.23;2010182;71;33191;-74